M I D A S
Marine Information and Data Acquisition System
Tripno 322 of the Zeeleeuw from 2002-03-20 09:00:00 to 2002-03-20 13:32:00
Back to CruiseResearch ActivitiesStationsMapUnderway DataData graphs

EquipmentUnitsComments
TimeDGPSUTC
LatitudeDGPSDM.mWGS84
LongitudeDGPSDM.mWGS84
SpeedMeteo Stationm/sRelative wind speed
DirectionMeteo StationdegRelative wind direction
TemperatureMeteo Stationdeg CelciusAir temperature
PressureMeteo StationPaAtmospheric pressure
HumidityMeteo Station%Relative humidity
Missing or incorrect values are displayed as -999
Metereological data collected by the RV Zeeleeuw from 2002-03-20 09:00:00 to 2002-03-20 13:32:00
Time Latitude Longitude Speed Direction Temperature Pressure Humidity
2002-03-20 09:01 51°13.597 2°56.098 7 74 10.8 101260 87
2002-03-20 09:02 51°13.596 2°56.098 5.6 84 10.7 101260 87
2002-03-20 09:03 51°13.597 2°56.098 9.3 80 10.7 101260 87
2002-03-20 09:04 51°13.596 2°56.099 5.5 76 10.7 101260 87
2002-03-20 09:05 51°13.595 2°56.099 8 83 10.7 101270 87
2002-03-20 09:06 51°13.605 2°56.06 8.6 121 10.7 101270 87
2002-03-20 09:07 51°13.623 2°55.999 4.4 55 10.7 101280 87
2002-03-20 09:08 51°13.638 2°55.967 9.2 75 10.7 101270 87
2002-03-20 09:09 51°13.66 2°55.891 6.3 72 10.7 101280 87
2002-03-20 09:10 51°13.681 2°55.786 5.6 78 10.7 101270 87
2002-03-20 09:11 51°13.706 2°55.767 5.1 343 10.8 101300 87
2002-03-20 09:12 51°13.735 2°55.757 1.6 308 10.7 101300 87
2002-03-20 09:13 51°13.697 2°55.816 3.5 275 10.7 101300 87
2002-03-20 09:14 51°13.679 2°55.845 6.7 274 10.7 101300 87
2002-03-20 09:15 51°13.675 2°55.856 8.1 295 10.7 101300 87
2002-03-20 09:16 51°13.677 2°55.855 8.9 295 10.7 101300 86
2002-03-20 09:17 51°13.696 2°55.832 7.9 275 10.7 101290 86
2002-03-20 09:18 51°13.742 2°55.749 6.1 245 10.7 101300 86
2002-03-20 09:19 51°13.812 2°55.647 8.2 253 10.7 101300 86
2002-03-20 09:20 51°13.909 2°55.575 7.9 263 10.7 101310 86
2002-03-20 09:21 51°14.039 2°55.487 5.4 254 10.7 101300 86
2002-03-20 09:22 51°14.162 2°55.388 10 264 10.6 101290 86
2002-03-20 09:23 51°14.274 2°55.241 12.8 267 10.5 101300 86
2002-03-20 09:24 51°14.368 2°55.058 12.9 257 10.3 101290 86
2002-03-20 09:25 51°14.39 2°54.827 14.4 243 10.2 101270 87
2002-03-20 09:26 51°14.364 2°54.555 16.2 227 10.2 101280 87
2002-03-20 09:27 51°14.29 2°54.269 15.2 230 10.1 101270 87
2002-03-20 09:28 51°14.21 2°53.975 15.4 226 10.1 101260 88
2002-03-20 09:29 51°14.106 2°53.673 17 226 10.1 101260 88
2002-03-20 09:30 51°13.997 2°53.355 16.9 227 10 101260 88
2002-03-20 09:31 51°13.883 2°53.023 17 226 10 101270 88
2002-03-20 09:32 51°13.77 2°52.689 17.3 224 10 101280 88
2002-03-20 09:33 51°13.658 2°52.36 17.5 225 10 101280 88
2002-03-20 09:34 51°13.546 2°52.031 16 228 10 101300 88
2002-03-20 09:35 51°13.436 2°51.707 18.4 225 10 101300 88
2002-03-20 09:36 51°13.323 2°51.372 18 227 10 101300 89
2002-03-20 09:37 51°13.211 2°51.043 17.9 225 10 101300 89
2002-03-20 09:38 51°13.098 2°50.715 16.8 134 10 101290 89
2002-03-20 09:39 51°12.993 2°50.381 16.4 227 10 101300 89
2002-03-20 09:40 51°12.889 2°50.045 16.3 225 9.9 101300 89
2002-03-20 09:41 51°12.781 2°49.712 18.8 224 10 101290 89
2002-03-20 09:42 51°12.678 2°49.38 18 226 9.9 101310 89
2002-03-20 09:43 51°12.604 2°49.102 12.4 237 9.9 101300 89
2002-03-20 09:44 51°12.591 2°48.956 11.1 241 9.9 101310 89
2002-03-20 09:45 51°12.585 2°48.953 9.4 254 10 101320 89
2002-03-20 09:46 51°12.581 2°48.929 8.9 256 10 101320 89
2002-03-20 09:47 51°12.577 2°48.915 9.7 263 9.9 101330 89
2002-03-20 09:48 51°12.575 2°48.903 10 272 9.9 101330 89
2002-03-20 09:49 51°12.58 2°48.872 10.8 277 9.9 101330 89
2002-03-20 09:50 51°12.586 2°48.836 9.2 273 9.9 101330 89
2002-03-20 09:51 51°12.592 2°48.8 9.7 284 9.9 101340 89
2002-03-20 09:52 51°12.605 2°48.765 10 294 9.9 101340 89
2002-03-20 09:53 51°12.623 2°48.736 8 313 9.9 101350 89
2002-03-20 09:54 51°12.644 2°48.718 2.4 322 9.9 101350 89
2002-03-20 09:55 51°12.667 2°48.715 6.3 348 9.8 101350 89
2002-03-20 09:56 51°12.687 2°48.726 7.8 13 9.8 101350 89
2002-03-20 09:57 51°12.702 2°48.75 7 32 9.8 101350 89
2002-03-20 09:58 51°12.711 2°48.785 7 36 9.8 101370 89
2002-03-20 09:59 51°12.721 2°48.818 7.7 32 9.8 101370 89
2002-03-20 10:00 51°12.729 2°48.845 7.8 33 9.8 101380 89
2002-03-20 10:01 51°12.734 2°48.869 7.7 35 9.8 101380 89
2002-03-20 10:02 51°12.737 2°48.892 7.4 319 9.8 101390 90
2002-03-20 10:03 51°12.741 2°48.912 8.9 31 9.8 101380 90
2002-03-20 10:04 51°12.745 2°48.93 8.3 35 9.7 101380 90
2002-03-20 10:05 51°12.749 2°48.948 8 30 9.7 101390 90
2002-03-20 10:06 51°12.752 2°48.967 6.1 44 9.7 101390 90
2002-03-20 10:07 51°12.756 2°48.994 7.4 44 9.9 101380 90
2002-03-20 10:08 51°12.761 2°49.025 6 46 10.1 101380 91
2002-03-20 10:09 51°12.765 2°49.059 7.7 59 10.3 101380 90
2002-03-20 10:10 51°12.757 2°49.094 8 72 10.2 101380 89
2002-03-20 10:11 51°12.754 2°49.126 8 52 10.1 101380 88
2002-03-20 10:12 51°12.756 2°49.158 7.9 131 10.2 101390 89
2002-03-20 10:13 51°12.759 2°49.191 7.1 319 10.3 101390 89
2002-03-20 10:14 51°12.764 2°49.225 5.7 318 10.4 101390 89
2002-03-20 10:15 51°12.771 2°49.257 6.8 40 10.3 101390 88
2002-03-20 10:16 51°12.78 2°49.287 8.3 28 10.1 101390 88
2002-03-20 10:17 51°12.79 2°49.317 8.8 24 10.1 101390 88
2002-03-20 10:18 51°12.8 2°49.348 7.6 29 10 101390 88
2002-03-20 10:19 51°12.808 2°49.381 7.3 133 10 101400 88
2002-03-20 10:20 51°12.809 2°49.416 7.8 56 10.1 101400 89
2002-03-20 10:21 51°12.801 2°49.451 8.2 77 10.1 101400 88
2002-03-20 10:22 51°12.786 2°49.48 6.8 92 10 101410 88
2002-03-20 10:23 51°12.769 2°49.501 7.9 101 10 101410 88
2002-03-20 10:24 51°12.748 2°49.518 7.5 118 10 101410 88
2002-03-20 10:25 51°12.723 2°49.532 7.9 130 10 101400 88
2002-03-20 10:26 51°12.695 2°49.54 8.6 132 10 101400 88
2002-03-20 10:27 51°12.668 2°49.536 7.5 151 10 101400 88
2002-03-20 10:28 51°12.643 2°49.527 10.1 163 9.9 101400 88
2002-03-20 10:29 51°12.62 2°49.515 9.1 173 9.9 101390 88
2002-03-20 10:30 51°12.599 2°49.499 7.7 178 9.9 101390 89
2002-03-20 10:31 51°12.579 2°49.482 9.7 188 9.8 101400 89
2002-03-20 10:32 51°12.558 2°49.465 9.5 193 9.8 101410 89
2002-03-20 10:33 51°12.539 2°49.449 7.7 195 9.8 101410 89
2002-03-20 10:34 51°12.521 2°49.437 8.2 185 9.8 101420 89
2002-03-20 10:35 51°12.504 2°49.427 6.7 183 9.8 101430 89
2002-03-20 10:36 51°12.485 2°49.417 8 182 9.8 101420 89
2002-03-20 10:37 51°12.463 2°49.404 8.1 188 9.8 101420 89
2002-03-20 10:38 51°12.441 2°49.385 9.2 205 9.8 101420 89
2002-03-20 10:39 51°12.421 2°49.363 9.3 201 9.8 101400 89
2002-03-20 10:40 51°12.403 2°49.343 9.5 203 9.9 101400 89
2002-03-20 10:41 51°12.388 2°49.33 8.7 193 9.9 101400 89
2002-03-20 10:42 51°12.373 2°49.32 7.4 188 9.9 101400 89
2002-03-20 10:43 51°12.359 2°49.313 7.9 168 9.9 101410 89
2002-03-20 10:44 51°12.334 2°49.302 9.4 192 9.9 101400 89
2002-03-20 10:45 51°12.316 2°49.171 10.6 278 9.9 101410 89
2002-03-20 10:46 51°12.407 2°49.018 12.5 277 10 101400 89
2002-03-20 10:47 51°12.52 2°48.893 3.3 296 10 101400 89
2002-03-20 10:48 51°12.562 2°48.893 7.3 22 10 101420 89
2002-03-20 10:49 51°12.564 2°48.906 7.1 319 9.9 101430 88
2002-03-20 10:50 51°12.565 2°48.919 7.8 42 10 101420 89
2002-03-20 10:51 51°12.565 2°48.932 8.2 28 9.9 101410 88
2002-03-20 10:52 51°12.568 2°48.941 6.1 26 9.9 101410 88
2002-03-20 10:53 51°12.572 2°48.947 6.5 19 9.9 101420 89
2002-03-20 10:54 51°12.576 2°48.949 7.1 3 9.9 101420 89
2002-03-20 10:55 51°12.581 2°48.946 6.4 357 9.8 101410 89
2002-03-20 10:56 51°12.585 2°48.939 3.8 347 9.9 101420 89
2002-03-20 10:57 51°12.588 2°48.93 4.7 338 9.8 101420 89
2002-03-20 10:58 51°12.615 2°48.95 6.3 31 9.8 101420 89
2002-03-20 10:59 51°12.631 2°49.043 4.8 69 9.9 101430 89
2002-03-20 11:00 51°12.615 2°49.127 8.2 103 9.9 101430 89
2002-03-20 11:01 51°12.579 2°49.173 7.4 121 9.9 101430 89
2002-03-20 11:02 51°12.533 2°49.194 8.7 139 9.9 101430 89
2002-03-20 11:03 51°12.484 2°49.192 8.8 167 9.9 101420 89
2002-03-20 11:04 51°12.429 2°49.155 9.1 201 9.9 101420 89
2002-03-20 11:05 51°12.384 2°49.08 11.1 226 9.8 101420 89
2002-03-20 11:06 51°12.356 2°48.986 11.1 236 9.9 101420 89
2002-03-20 11:07 51°12.335 2°48.895 10.3 235 9.9 101430 89
2002-03-20 11:08 51°12.318 2°48.834 8.6 235 9.9 101430 89
2002-03-20 11:09 51°12.301 2°48.79 7.8 225 10 101440 89
2002-03-20 11:10 51°12.282 2°48.749 9 237 10 101440 89
2002-03-20 11:11 51°12.265 2°48.694 9.1 239 10 101440 89
2002-03-20 11:12 51°12.246 2°48.635 8.5 236 10 101440 89
2002-03-20 11:13 51°12.222 2°48.572 9.9 233 10 101440 89
2002-03-20 11:14 51°12.197 2°48.508 9.1 226 10 101430 89
2002-03-20 11:15 51°12.173 2°48.443 9.2 230 10 101440 89
2002-03-20 11:16 51°12.149 2°48.376 9.5 233 10 101440 89
2002-03-20 11:17 51°12.125 2°48.306 9.6 229 10 101450 89
2002-03-20 11:18 51°12.1 2°48.236 9.6 228 10 101450 89
2002-03-20 11:19 51°12.073 2°48.169 10.1 227 10 101460 89
2002-03-20 11:20 51°12.045 2°48.104 9 218 10 101460 89
2002-03-20 11:21 51°12.016 2°48.039 10 224 10 101450 89
2002-03-20 11:22 51°11.999 2°47.969 9 250 10 101460 89
2002-03-20 11:23 51°12.006 2°47.904 10.1 284 10 101460 89
2002-03-20 11:24 51°12.028 2°47.854 7.5 294 10 101450 89
2002-03-20 11:25 51°12.06 2°47.811 7.1 304 9.9 101460 89
2002-03-20 11:26 51°12.092 2°47.779 3 290 9.9 101470 89
2002-03-20 11:27 51°12.126 2°47.772 5.2 360 9.9 101470 89
2002-03-20 11:28 51°12.155 2°47.79 7 13 9.8 101470 89
2002-03-20 11:29 51°12.175 2°47.834 6.9 44 9.8 101480 89
2002-03-20 11:30 51°12.186 2°47.889 6.7 44 9.9 101480 89
2002-03-20 11:31 51°12.198 2°47.94 5.9 36 9.9 101480 89
2002-03-20 11:32 51°12.205 2°47.99 6.8 51 9.9 101490 89
2002-03-20 11:33 51°12.2 2°48.04 6.1 82 10 101490 89
2002-03-20 11:34 51°12.189 2°48.094 6.7 77 9.9 101490 89
2002-03-20 11:35 51°12.18 2°48.146 6 77 9.9 101490 89
2002-03-20 11:36 51°12.176 2°48.199 6.7 69 9.9 101490 89
2002-03-20 11:37 51°12.175 2°48.249 6.5 57 9.9 101490 89
2002-03-20 11:38 51°12.176 2°48.298 6.3 57 9.8 101490 89
2002-03-20 11:39 51°12.176 2°48.353 6.5 72 9.8 101480 89
2002-03-20 11:40 51°12.166 2°48.405 6.2 97 9.8 101490 89
2002-03-20 11:41 51°12.145 2°48.45 6.4 112 9.8 101490 89
2002-03-20 11:42 51°12.114 2°48.483 8 127 9.8 101490 89
2002-03-20 11:43 51°12.08 2°48.497 8 146 9.8 101490 89
2002-03-20 11:44 51°12.043 2°48.501 8.9 157 9.8 101480 89
2002-03-20 11:45 51°12.004 2°48.498 8.1 165 9.8 101490 89
2002-03-20 11:46 51°11.974 2°48.489 7.3 179 9.8 101490 89
2002-03-20 11:47 51°11.944 2°48.474 7 192 9.8 101490 90
2002-03-20 11:48 51°11.914 2°48.441 7.8 219 9.7 101490 90
2002-03-20 11:49 51°11.896 2°48.373 8.5 251 9.8 101490 90
2002-03-20 11:50 51°11.903 2°48.286 9.3 268 9.8 101480 90
2002-03-20 11:51 51°11.928 2°48.2 10 279 9.8 101470 90
2002-03-20 11:52 51°11.959 2°48.116 9.8 285 9.8 101480 90
2002-03-20 11:53 51°11.989 2°48.048 9.3 287 9.8 101480 90
2002-03-20 11:54 51°12.005 2°47.998 8.3 284 9.8 101490 90
2002-03-20 11:55 51°12.015 2°47.957 7.8 283 9.8 101490 90
2002-03-20 11:56 51°12.022 2°47.919 8.1 277 9.8 101490 90
2002-03-20 11:57 51°12.029 2°47.87 9.8 269 9.8 101490 90
2002-03-20 11:58 51°12.035 2°47.821 8.6 269 9.8 101480 90
2002-03-20 11:59 51°12.037 2°47.772 9.1 266 9.9 101490 90
2002-03-20 12:00 51°12.039 2°47.718 9.3 268 9.9 101480 90
2002-03-20 12:01 51°12.041 2°47.664 9.2 266 9.9 101480 90
2002-03-20 12:02 51°12.041 2°47.609 8.8 258 9.9 101480 90
2002-03-20 12:03 51°12.04 2°47.552 8.7 260 9.9 101480 90
2002-03-20 12:04 51°12.039 2°47.495 9 260 9.9 101480 90
2002-03-20 12:05 51°12.036 2°47.435 8.6 253 9.9 101480 90
2002-03-20 12:06 51°12.033 2°47.377 8.9 252 9.9 101470 90
2002-03-20 12:07 51°12.029 2°47.316 8.5 255 10 101470 90
2002-03-20 12:08 51°12.025 2°47.256 8 253 9.9 101470 90
2002-03-20 12:09 51°12.021 2°47.196 8.8 250 10 101470 90
2002-03-20 12:10 51°12.016 2°47.134 8.5 247 9.9 101470 89
2002-03-20 12:11 51°12.011 2°47.072 9.1 246 10 101480 89
2002-03-20 12:12 51°12.004 2°47.006 8 245 9.9 101480 89
2002-03-20 12:13 51°11.995 2°46.945 8 247 10 101470 89
2002-03-20 12:14 51°11.987 2°46.89 8.5 243 9.9 101480 89
2002-03-20 12:15 51°11.98 2°46.842 8.1 246 9.9 101480 89
2002-03-20 12:16 51°11.976 2°46.798 7 254 9.9 101480 89
2002-03-20 12:17 51°11.972 2°46.759 7.4 252 9.9 101490 89
2002-03-20 12:18 51°11.968 2°46.724 7.9 253 10 101500 89
2002-03-20 12:19 51°11.963 2°46.682 8.4 244 10 101500 89
2002-03-20 12:20 51°11.952 2°46.633 8.4 222 10 101510 89
2002-03-20 12:21 51°11.929 2°46.596 6.9 183 9.9 101500 89
2002-03-20 12:22 51°11.898 2°46.583 8.5 150 9.9 101500 89
2002-03-20 12:23 51°11.864 2°46.592 7.5 134 9.8 101510 89
2002-03-20 12:24 51°11.831 2°46.618 5.9 117 9.8 101520 89
2002-03-20 12:25 51°11.805 2°46.656 5.3 104 9.8 101520 89
2002-03-20 12:26 51°11.789 2°46.704 6.5 73 9.8 101520 89
2002-03-20 12:27 51°11.779 2°46.758 6.1 73 9.8 101520 90
2002-03-20 12:28 51°11.771 2°46.815 6.4 73 9.8 101510 90
2002-03-20 12:29 51°11.759 2°46.872 6.1 92 9.8 101510 90
2002-03-20 12:30 51°11.739 2°46.922 6.6 102 9.8 101500 90
2002-03-20 12:31 51°11.715 2°46.962 8.4 109 9.8 101500 90
2002-03-20 12:32 51°11.689 2°46.993 6.8 122 9.9 101510 90
2002-03-20 12:33 51°11.629 2°47.046 8.5 172 9.9 101510 90
2002-03-20 12:34 51°11.562 2°47.017 7.8 194 9.8 101490 90
2002-03-20 12:35 51°11.524 2°46.995 6 185 9.8 101490 89
2002-03-20 12:36 51°11.488 2°46.987 7.7 153 9.8 101490 89
2002-03-20 12:37 51°11.45 2°47.033 5.4 105 9.8 101500 89
2002-03-20 12:38 51°11.427 2°47.127 4.8 80 9.9 101500 90
2002-03-20 12:39 51°11.435 2°47.236 4 47 9.9 101510 90
2002-03-20 12:40 51°11.454 2°47.308 5.8 45 10 101510 90
2002-03-20 12:41 51°11.453 2°47.315 6.2 44 10.1 101510 90
2002-03-20 12:42 51°11.454 2°47.329 6.6 40 10 101510 89
2002-03-20 12:43 51°11.456 2°47.347 6.3 28 10 101510 89
2002-03-20 12:44 51°11.461 2°47.365 7 24 10 101510 89
2002-03-20 12:45 51°11.467 2°47.382 6.6 13 9.9 101510 89
2002-03-20 12:46 51°11.475 2°47.396 6.5 4 9.9 101510 89
2002-03-20 12:47 51°11.484 2°47.407 5.2 348 9.9 101510 89
2002-03-20 12:48 51°11.491 2°47.416 4.3 357 9.9 101520 89
2002-03-20 12:49 51°11.499 2°47.423 2.6 353 9.9 101510 89
2002-03-20 12:50 51°11.505 2°47.428 1.5 335 9.9 101520 89
2002-03-20 12:51 51°11.51 2°47.433 2.1 323 9.9 101520 89
2002-03-20 12:52 51°11.514 2°47.439 2.8 334 9.9 101520 89
2002-03-20 12:53 51°11.519 2°47.445 4.8 318 9.9 101520 89
2002-03-20 12:54 51°11.6 2°47.531 3 1 9.9 101530 89
2002-03-20 12:55 51°11.714 2°47.766 0.9 319 9.9 101530 89
2002-03-20 12:56 51°11.821 2°48.044 2.8 297 9.9 101530 89
2002-03-20 12:57 51°11.94 2°48.335 2.1 313 10 101530 89
2002-03-20 12:58 51°12.059 2°48.629 2.3 301 10 101530 89
2002-03-20 12:59 51°12.178 2°48.919 1.6 298 10 101530 89
2002-03-20 13:00 51°12.293 2°49.2 2.3 299 10.1 101530 89
2002-03-20 13:01 51°12.414 2°49.503 2.9 297 10.2 101520 89
2002-03-20 13:02 51°12.534 2°49.793 3.6 299 10.2 101520 89
2002-03-20 13:03 51°12.651 2°50.087 3.5 306 10.2 101530 89
2002-03-20 13:04 51°12.77 2°50.378 3.2 295 10.2 101530 89
2002-03-20 13:05 51°12.887 2°50.67 2.5 299 10.2 101530 89
2002-03-20 13:06 51°13.006 2°50.963 1.6 301 10.2 101530 89
2002-03-20 13:07 51°13.126 2°51.254 1.8 285 10.2 101530 88
2002-03-20 13:08 51°13.241 2°51.55 3 292 10.2 101530 88
2002-03-20 13:09 51°13.36 2°51.845 2.3 290 10.2 101520 88
2002-03-20 13:10 51°13.477 2°52.138 2.6 292 10.2 101530 88
2002-03-20 13:11 51°13.595 2°52.43 2.5 284 10.2 101520 88
2002-03-20 13:12 51°13.715 2°52.724 1.9 275 10.2 101520 88
2002-03-20 13:13 51°13.832 2°53.017 2 285 10.2 101520 88
2002-03-20 13:14 51°13.95 2°53.311 1.9 255 10.3 101520 88
2002-03-20 13:15 51°14.067 2°53.606 1.7 312 10.3 101530 88
2002-03-20 13:16 51°14.177 2°53.893 2 291 10.3 101520 88
2002-03-20 13:17 51°14.288 2°54.161 1.2 313 10.3 101520 88
2002-03-20 13:18 51°14.361 2°54.447 0.9 59 10.3 101520 88
2002-03-20 13:19 51°14.393 2°54.748 2.2 133 10.3 101520 88
2002-03-20 13:20 51°14.369 2°55.031 4.9 150 10.3 101520 88
2002-03-20 13:21 51°14.278 2°55.227 6.5 162 10.2 101510 88
2002-03-20 13:22 51°14.199 2°55.341 5.9 153 10.2 101510 88
2002-03-20 13:23 51°14.144 2°55.394 4 141 10.2 101510 89
2002-03-20 13:24 51°14.089 2°55.436 3.4 181 10.2 101510 89
2002-03-20 13:25 51°14.023 2°55.487 2.5 161 10.3 101510 89
2002-03-20 13:26 51°13.938 2°55.554 4.1 219 10.4 101510 89
2002-03-20 13:27 51°13.816 2°55.644 3.8 152 10.5 101500 88
2002-03-20 13:28 51°13.748 2°55.718 2.1 90 10.6 101510 88
2002-03-20 13:29 51°13.72 2°55.781 2.4 83 10.7 101510 88
2002-03-20 13:30 51°13.702 2°55.836 4.5 64 10.8 101510 87
2002-03-20 13:31 51°13.694 2°55.883 2.7 98 10.9 101500 87